< Cyclone 201101 2011 Season Cyclone 201103 >
Cyclone 201102 (Abele)
General InformationTrack Information on Google MapsDetailed Wind InformationList of All Images || ResourceGoogle EarthGE AnimationAtom FeedGeoJSON
Detalied Best Track (Time Zone = UTC)
Year Month Day Hour Lat. Long. Pressure (hPa) Wind (kt) Class Image Chart
2010 11 29 00 -11.3 86.4 1000 25 2 Image --
2010 11 29 06 -11.4 86.1 1000 25 2 Image --
2010 11 29 12 -11.6 86.0 1000 25 2 Image --
2010 11 29 18 -12.0 85.9 1000 25 2 Image --
2010 11 30 00 -12.6 86.1 998 25 2 Image --
2010 11 30 06 -12.3 85.8 997 30 2 Image --
2010 11 30 12 -13.0 85.4 998 30 2 Image --
2010 11 30 18 -13.7 85.3 998 30 2 Image --
2010 12 1 00 -14.1 85.5 997 30 2 Image --
2010 12 1 06 -14.6 85.7 997 30 2 Image --
2010 12 1 12 -15.2 85.9 988 45 3 Image --
2010 12 1 18 -15.6 86.2 982 50 4 Image --
2010 12 2 00 -16.0 86.7 984 50 4 Image --
2010 12 2 06 -16.5 87.3 980 55 4 Image --
2010 12 2 12 -17.0 88.6 973 70 5 Image --
2010 12 2 18 -17.6 89.5 975 65 5 Image --
2010 12 3 00 -18.3 90.5 987 50 4 Image --
2010 12 3 06 -19.0 91.5 990 45 3 Image --
2010 12 3 12 -19.9 92.8 992 40 3 Image --
2010 12 3 18 -20.7 93.3 992 40 3 Image --
2010 12 4 00 -21.6 93.7 995 40 3 Image --
2010 12 4 06 -22.3 93.9 998 40 3 Image --
2010 12 4 12 -22.7 94.5 998 40 3 Image --
2010 12 4 18 -23.7 95.9 998 40 3 Image --
< Cyclone 201101 2011 Season Cyclone 201103 >

Help